createdAt,value
2022-09-18T00:04:42.733Z,13.51
2022-09-18T00:09:45.181Z,13.55
2022-09-18T00:14:46.922Z,13.44
2022-09-18T00:19:49.148Z,13.40
2022-09-18T00:24:50.821Z,13.47
2022-09-18T00:29:52.473Z,13.51
2022-09-18T00:34:54.252Z,13.69
2022-09-18T00:39:56.099Z,14.02
2022-09-18T00:44:57.731Z,14.13
2022-09-18T00:50:04.777Z,13.79
2022-09-18T00:55:09.836Z,13.90
2022-09-18T01:00:12.259Z,13.84
2022-09-18T01:05:17.253Z,13.71
2022-09-18T01:10:24.687Z,13.70
2022-09-18T01:15:48.050Z,13.98
2022-09-18T01:21:02.310Z,13.56
2022-09-18T01:26:22.753Z,13.56
2022-09-18T01:31:45.060Z,13.51
2022-09-18T01:36:52.342Z,13.58
2022-09-18T01:41:57.128Z,13.59
2022-09-18T01:47:01.526Z,13.70
2022-09-18T01:52:15.556Z,13.59
2022-09-18T01:57:25.831Z,13.89
2022-09-18T02:02:36.479Z,13.69
2022-09-18T02:08:01.214Z,13.59
2022-09-18T02:13:06.706Z,13.49
2022-09-18T02:18:17.482Z,13.46
2022-09-18T02:23:27.026Z,13.54
2022-09-18T02:28:31.659Z,13.47
2022-09-18T02:33:36.929Z,13.41
2022-09-18T02:38:38.452Z,14.29
2022-09-18T02:43:55.594Z,13.82
2022-09-18T02:49:24.751Z,13.74
2022-09-18T02:54:47.988Z,13.56
2022-09-18T02:59:53.497Z,13.48
2022-09-18T03:04:56.857Z,13.40
2022-09-18T03:10:08.578Z,13.29
2022-09-18T03:15:11.373Z,13.56
2022-09-18T03:20:13.139Z,13.53
2022-09-18T03:25:15.441Z,13.58
2022-09-18T03:30:17.482Z,13.49
2022-09-18T03:35:20.166Z,13.41
2022-09-18T03:40:22.599Z,13.35
2022-09-18T03:45:24.762Z,13.44
2022-09-18T03:50:26.444Z,13.60
2022-09-18T03:55:28.158Z,13.71
2022-09-18T04:00:52.842Z,14.17
2022-09-18T04:06:05.385Z,14.10
2022-09-18T04:11:39.069Z,13.31
2022-09-18T04:16:41.198Z,13.26
2022-09-18T04:21:44.102Z,13.16
2022-09-18T04:26:50.061Z,13.07
2022-09-18T04:31:54.682Z,13.08
2022-09-18T04:36:59.770Z,13.08
2022-09-18T04:42:03.407Z,12.89
2022-09-18T04:47:06.288Z,12.93
2022-09-18T04:52:07.863Z,13.15
2022-09-18T04:57:09.505Z,13.05
2022-09-18T05:02:11.322Z,13.17
2022-09-18T05:07:13.666Z,13.12
2022-09-18T05:12:15.728Z,13.18
2022-09-18T05:17:17.422Z,13.50
2022-09-18T05:22:33.345Z,13.33
2022-09-18T05:27:35.181Z,13.28
2022-09-18T05:32:36.917Z,13.32
2022-09-18T05:37:38.797Z,13.18
2022-09-18T05:42:46.537Z,13.17
2022-09-18T05:48:00.589Z,13.27
2022-09-18T05:53:10.232Z,13.29
2022-09-18T05:58:34.919Z,13.36
2022-09-18T06:03:37.325Z,13.24
2022-09-18T06:08:39.098Z,13.04
2022-09-18T06:13:41.240Z,13.16
2022-09-18T06:18:43.002Z,13.17
2022-09-18T06:23:44.694Z,13.18
2022-09-18T06:28:53.977Z,13.28
2022-09-18T06:33:56.036Z,13.21
2022-09-18T06:38:58.629Z,13.37
2022-09-18T06:44:00.313Z,13.49
2022-09-18T06:49:13.400Z,13.43
2022-09-18T06:54:18.567Z,13.90
2022-09-18T06:59:20.213Z,13.89
2022-09-18T07:04:22.012Z,13.76
2022-09-18T07:09:25.543Z,13.74
2022-09-18T07:14:27.174Z,13.65
2022-09-18T07:19:34.098Z,13.76
2022-09-18T07:24:36.826Z,13.57
2022-09-18T07:29:40.131Z,13.44
2022-09-18T07:34:42.904Z,13.41
2022-09-18T07:39:47.689Z,13.48
2022-09-18T07:45:08.283Z,13.46
2022-09-18T07:50:16.005Z,13.63
2022-09-18T07:55:20.834Z,13.96
2022-09-18T08:00:22.539Z,14.15
2022-09-18T08:05:25.900Z,13.96
2022-09-18T08:10:34.335Z,13.79
2022-09-18T08:16:08.138Z,13.67
2022-09-18T08:21:31.678Z,13.88
2022-09-18T08:26:38.785Z,14.01
2022-09-18T08:31:41.661Z,13.70
2022-09-18T08:36:45.130Z,13.82
2022-09-18T08:42:37.109Z,13.85
2022-09-18T08:47:52.558Z,14.00
2022-09-18T08:53:03.964Z,14.36
2022-09-18T08:58:30.609Z,14.49
2022-09-18T09:03:45.652Z,14.56
2022-09-18T09:09:02.852Z,14.10
2022-09-18T09:14:56.096Z,13.86
2022-09-18T09:20:24.471Z,13.91
2022-09-18T09:25:48.047Z,14.14
2022-09-18T09:31:03.947Z,14.20
2022-09-18T09:36:27.124Z,14.25
2022-09-18T09:41:36.419Z,14.57
2022-09-18T09:47:12.108Z,14.38
2022-09-18T09:52:32.346Z,14.44
2022-09-18T09:58:03.372Z,14.61
2022-09-18T10:03:34.071Z,14.66
2022-09-18T10:08:50.484Z,14.32
2022-09-18T10:13:58.953Z,14.14
2022-09-18T10:19:01.516Z,13.97
2022-09-18T10:24:22.547Z,14.05
2022-09-18T10:29:26.086Z,14.04
2022-09-18T10:34:34.922Z,13.90
2022-09-18T10:39:36.798Z,13.96
2022-09-18T10:44:49.345Z,14.08
2022-09-18T10:50:06.295Z,14.12
2022-09-18T10:55:15.001Z,14.11
2022-09-18T11:00:21.707Z,14.14
2022-09-18T11:05:32.737Z,14.17
2022-09-18T11:10:37.728Z,14.35
2022-09-18T11:16:02.983Z,14.12
2022-09-18T11:21:06.873Z,14.11
2022-09-18T11:26:27.758Z,14.11
2022-09-18T11:31:50.082Z,14.34
2022-09-18T11:37:02.596Z,14.30
2022-09-18T11:42:18.209Z,14.20
2022-09-18T11:47:45.169Z,14.20
2022-09-18T11:53:02.064Z,14.40
2022-09-18T11:58:18.618Z,14.78
2022-09-18T12:03:43.509Z,14.91
2022-09-18T12:08:49.916Z,14.48
2022-09-18T12:13:57.948Z,14.21
2022-09-18T12:19:18.196Z,14.01
2022-09-18T12:24:19.866Z,13.89
2022-09-18T12:29:54.055Z,13.78
2022-09-18T12:35:21.122Z,13.82
2022-09-18T12:40:35.535Z,13.80
2022-09-18T12:46:14.671Z,13.85
2022-09-18T12:51:27.066Z,13.90
2022-09-18T12:56:41.057Z,13.86
2022-09-18T13:01:56.386Z,13.75
2022-09-18T13:07:11.682Z,13.67
2022-09-18T13:12:20.009Z,13.75
2022-09-18T13:17:46.694Z,13.79
2022-09-18T13:22:53.355Z,13.79
2022-09-18T13:27:58.407Z,13.74
2022-09-18T13:33:02.017Z,13.66
2022-09-18T13:38:13.002Z,13.89
2022-09-18T13:43:21.070Z,14.51
2022-09-18T13:48:30.595Z,14.08
2022-09-18T13:53:44.111Z,13.91
2022-09-18T13:58:54.486Z,13.66
2022-09-18T14:03:59.925Z,13.70
2022-09-18T14:09:02.762Z,13.71
2022-09-18T14:14:11.890Z,13.87
2022-09-18T14:19:31.892Z,14.02
2022-09-18T14:24:39.430Z,14.15
2022-09-18T14:29:41.233Z,14.03
2022-09-18T14:34:44.723Z,13.88
2022-09-18T14:39:47.003Z,13.78
2022-09-18T14:44:53.210Z,13.83
2022-09-18T14:49:54.967Z,13.70
2022-09-18T14:54:59.213Z,14.00
2022-09-18T15:00:02.488Z,13.92
2022-09-18T15:05:11.369Z,13.97
2022-09-18T15:10:15.967Z,14.32
2022-09-18T15:15:34.938Z,14.60
2022-09-18T15:20:37.226Z,13.82
2022-09-18T15:25:42.012Z,13.54
2022-09-18T15:30:44.653Z,13.66
2022-09-18T15:35:51.656Z,13.50
2022-09-18T15:40:54.031Z,13.40
2022-09-18T15:46:06.155Z,13.15
2022-09-18T15:51:26.818Z,13.04
2022-09-18T15:56:31.016Z,13.01
2022-09-18T16:01:35.835Z,12.98
2022-09-18T16:06:43.323Z,12.96
2022-09-18T16:11:46.386Z,12.99
2022-09-18T16:16:48.095Z,13.30
2022-09-18T16:21:49.762Z,13.08
2022-09-18T16:26:52.037Z,12.99
2022-09-18T16:31:53.784Z,12.82
2022-09-18T16:36:57.208Z,12.79
2022-09-18T16:41:58.909Z,12.90
2022-09-18T16:47:04.500Z,12.88
2022-09-18T16:52:06.411Z,13.06
2022-09-18T16:57:14.631Z,13.24
2022-09-18T17:02:23.331Z,13.30
2022-09-18T17:07:29.651Z,13.36
2022-09-18T17:12:31.356Z,13.53
2022-09-18T17:17:33.716Z,13.73
2022-09-18T17:22:35.344Z,13.90
2022-09-18T17:27:43.710Z,13.91
2022-09-18T17:32:48.974Z,13.45
2022-09-18T17:37:51.737Z,13.40
2022-09-18T17:42:53.970Z,13.38
2022-09-18T17:47:55.802Z,13.52
2022-09-18T17:52:57.530Z,14.20
2022-09-18T17:57:59.198Z,14.02
2022-09-18T18:03:00.850Z,13.85
2022-09-18T18:08:02.699Z,13.47
2022-09-18T18:13:04.465Z,13.21
2022-09-18T18:18:07.481Z,13.18
2022-09-18T18:23:11.541Z,13.65
2022-09-18T18:28:15.937Z,14.23
2022-09-18T18:33:18.129Z,13.96
2022-09-18T18:38:21.076Z,14.02
2022-09-18T18:43:24.452Z,13.76
2022-09-18T18:48:26.177Z,13.54
2022-09-18T18:53:28.651Z,13.76
2022-09-18T18:58:31.329Z,13.96
2022-09-18T19:03:38.081Z,13.80
2022-09-18T19:08:46.189Z,14.18
2022-09-18T19:13:53.055Z,13.75
2022-09-18T19:19:00.368Z,13.93
2022-09-18T19:24:02.306Z,14.28
2022-09-18T19:29:06.993Z,13.92
2022-09-18T19:34:13.310Z,13.84
2022-09-18T19:39:53.557Z,14.01
2022-09-18T19:45:01.573Z,14.40
2022-09-18T19:50:17.712Z,13.70
2022-09-18T19:55:20.834Z,13.95
2022-09-18T20:00:41.660Z,13.86
2022-09-18T20:06:12.626Z,13.95
2022-09-18T20:11:14.388Z,13.93
2022-09-18T20:16:16.506Z,13.73
2022-09-18T20:21:19.459Z,13.93
2022-09-18T20:26:21.026Z,13.52
2022-09-18T20:31:23.962Z,13.71
2022-09-18T20:36:26.515Z,13.81
2022-09-18T20:41:29.927Z,13.92
2022-09-18T20:46:36.965Z,13.62
2022-09-18T20:51:38.897Z,13.44
2022-09-18T20:56:43.317Z,13.79
2022-09-18T21:01:46.860Z,13.62
2022-09-18T21:06:55.269Z,13.81
2022-09-18T21:11:57.048Z,13.71
2022-09-18T21:16:58.739Z,13.52
2022-09-18T21:22:00.445Z,13.78
2022-09-18T21:27:02.109Z,13.60
2022-09-18T21:32:03.782Z,13.63
2022-09-18T21:37:12.008Z,13.80
2022-09-18T21:42:15.864Z,13.54
2022-09-18T21:47:17.528Z,13.57
2022-09-18T21:52:19.078Z,14.12
2022-09-18T21:57:21.757Z,13.75
2022-09-18T22:02:23.673Z,13.81
2022-09-18T22:07:25.722Z,14.26
2022-09-18T22:12:27.496Z,14.06
2022-09-18T22:17:29.080Z,14.00
2022-09-18T22:22:30.681Z,14.12
2022-09-18T22:27:32.324Z,13.72
2022-09-18T22:32:33.946Z,13.53
2022-09-18T22:37:35.740Z,13.67
2022-09-18T22:42:37.341Z,13.58
2022-09-18T22:47:38.991Z,13.75
2022-09-18T22:52:40.794Z,14.16
2022-09-18T22:57:42.424Z,14.06
2022-09-18T23:02:44.850Z,14.24
2022-09-18T23:07:46.949Z,13.96
2022-09-18T23:12:48.625Z,13.75
2022-09-18T23:17:50.672Z,13.67
2022-09-18T23:22:52.311Z,13.57
2022-09-18T23:27:53.902Z,13.71
2022-09-18T23:32:55.574Z,13.50
2022-09-18T23:37:57.188Z,13.40
2022-09-18T23:42:58.766Z,13.39
2022-09-18T23:48:00.425Z,13.32
2022-09-18T23:53:02.031Z,13.22
2022-09-18T23:58:03.685Z,13.34
